Time;durP1;ratioP1;P1;durP2;ratioP2;P2;SDS_P1;SDS_P2;PMS_P1;PMS_P2;Temp;Humidity;BMP_temperature;BMP_pressure;BME280_temperature;BME280_humidity;BME280_pressure;Samples;Min_cycle;Max_cycle;Signal;HPM_P1;HPM_P2
2022/07/16 00:03:29;;;;;;;3.77;3.47;;;15.70;99.90;;;;;;5023309;28;20585;-81
2022/07/16 00:05:56;;;;;;;3.83;3.30;;;15.60;99.90;;;;;;5027329;28;20635;-81
2022/07/16 00:08:24;;;;;;;4.87;3.90;;;15.60;99.90;;;;;;5025209;28;20619;-82
2022/07/16 00:10:51;;;;;;;4.00;3.60;;;15.60;99.90;;;;;;5027295;28;20650;-81
2022/07/16 00:13:18;;;;;;;3.93;3.13;;;15.60;99.90;;;;;;5025034;28;20630;-81
2022/07/16 00:15:45;;;;;;;4.27;3.50;;;15.60;99.90;;;;;;5026638;28;21241;-81
2022/07/16 00:20:58;;;;;;;3.60;3.30;;;15.50;99.90;;;;;;5022515;28;20634;-81
2022/07/16 00:23:24;;;;;;;3.70;3.40;;;15.50;99.90;;;;;;5023608;28;20631;-81
2022/07/16 00:25:51;;;;;;;4.30;3.90;;;15.40;99.90;;;;;;5026339;28;21207;-81
2022/07/16 00:28:18;;;;;;;3.37;3.17;;;15.40;99.90;;;;;;5023725;28;20630;-81
2022/07/16 00:30:45;;;;;;;5.13;4.00;;;15.30;99.90;;;;;;5027252;28;20662;-81
2022/07/16 00:33:11;;;;;;;4.30;4.00;;;15.30;99.90;;;;;;5026308;28;20613;-81
2022/07/16 00:35:38;;;;;;;5.67;3.53;;;15.30;99.90;;;;;;5025606;28;20659;-81
2022/07/16 00:38:07;;;;;;;4.33;3.90;;;15.30;99.90;;;;;;5026656;28;21189;-81
2022/07/16 00:40:34;;;;;;;4.27;3.90;;;15.20;99.90;;;;;;5026867;28;20662;-81
2022/07/16 00:43:01;;;;;;;7.80;3.60;;;15.10;99.90;;;;;;5021718;28;20648;-81
2022/07/16 00:45:28;;;;;;;4.00;3.50;;;15.20;99.90;;;;;;5023885;28;20630;-81
2022/07/16 00:47:55;;;;;;;3.90;3.60;;;15.10;99.90;;;;;;5021588;28;21009;-81
2022/07/16 00:50:22;;;;;;;5.27;3.80;;;15.20;99.90;;;;;;5024616;28;20650;-81
2022/07/16 00:52:49;;;;;;;4.17;3.60;;;15.10;99.90;;;;;;5027183;28;20642;-81
2022/07/16 00:55:17;;;;;;;4.40;3.53;;;15.00;99.90;;;;;;5027964;28;20678;-81
2022/07/16 00:57:44;;;;;;;3.83;3.13;;;15.00;99.90;;;;;;5030761;28;21267;-81
2022/07/16 01:00:12;;;;;;;4.03;3.63;;;15.00;99.90;;;;;;5027899;28;20651;-81
2022/07/16 01:02:39;;;;;;;3.93;3.47;;;15.00;99.90;;;;;;5026881;28;20637;-81
2022/07/16 01:05:07;;;;;;;3.87;3.20;;;14.90;99.90;;;;;;5030074;28;20623;-81
2022/07/16 01:07:34;;;;;;;3.73;3.43;;;14.80;99.90;;;;;;5025157;28;20631;-81
2022/07/16 01:10:03;;;;;;;4.20;3.50;;;14.80;99.90;;;;;;5029668;28;21021;-81
2022/07/16 01:12:32;;;;;;;4.40;3.70;;;14.80;99.90;;;;;;5027339;28;20623;-81
2022/07/16 01:14:59;;;;;;;8.37;3.90;;;14.80;99.90;;;;;;5026814;28;20678;-81
2022/07/16 01:17:27;;;;;;;4.73;3.53;;;14.80;99.90;;;;;;5027576;28;20661;-81
2022/07/16 01:19:54;;;;;;;4.87;4.37;;;14.80;99.90;;;;;;5026652;28;20659;-81
2022/07/16 01:22:23;;;;;;;4.80;3.87;;;14.70;99.90;;;;;;5029840;28;21183;-81
2022/07/16 01:24:52;;;;;;;6.13;3.87;;;14.80;99.90;;;;;;5027359;28;21216;-81
2022/07/16 01:27:20;;;;;;;4.20;3.80;;;14.80;99.90;;;;;;5030464;28;20667;-81
2022/07/16 01:29:47;;;;;;;6.77;3.70;;;14.80;99.90;;;;;;5027995;28;20670;-81
2022/07/16 01:32:14;;;;;;;4.00;3.70;;;14.80;99.90;;;;;;5029811;28;20626;-81
2022/07/16 01:34:41;;;;;;;7.13;3.43;;;14.80;99.90;;;;;;5026809;28;20658;-80
2022/07/16 01:37:10;;;;;;;5.00;3.90;;;14.70;99.90;;;;;;5027256;28;20634;-80
2022/07/16 01:39:38;;;;;;;6.00;4.07;;;14.80;99.90;;;;;;5030314;28;20666;-81
2022/07/16 01:42:08;;;;;;;3.90;3.50;;;14.70;99.90;;;;;;5025874;28;20643;-81
2022/07/16 01:44:36;;;;;;;5.53;4.00;;;14.70;99.90;;;;;;5022997;28;20619;-81
2022/07/16 01:47:05;;;;;;;4.77;4.37;;;14.70;99.90;;;;;;5025592;28;20646;-81
2022/07/16 01:49:33;;;;;;;4.77;3.60;;;14.70;99.90;;;;;;5022475;28;21296;-81
2022/07/16 01:52:05;;;;;;;4.43;4.03;;;14.70;99.90;;;;;;5027736;28;20994;-81
2022/07/16 01:54:31;;;;;;;5.83;3.30;;;14.60;99.90;;;;;;5026355;28;20654;-80
2022/07/16 01:56:58;;;;;;;3.57;3.27;;;14.60;99.90;;;;;;5026223;28;20641;-81
2022/07/16 01:59:26;;;;;;;4.53;4.13;;;14.60;99.90;;;;;;5029074;28;20631;-81
2022/07/16 02:01:53;;;;;;;4.33;3.93;;;14.50;99.90;;;;;;5026311;28;20627;-80
2022/07/16 02:04:20;;;;;;;4.13;3.83;;;14.50;99.90;;;;;;5028086;28;20608;-81
2022/07/16 02:06:47;;;;;;;4.80;4.40;;;14.50;99.90;;;;;;5026234;28;20635;-81
2022/07/16 02:09:14;;;;;;;4.60;3.70;;;14.40;99.90;;;;;;5027224;28;20631;-81
2022/07/16 02:11:40;;;;;;;6.50;4.23;;;14.40;99.90;;;;;;5026892;28;20634;-81
2022/07/16 02:14:07;;;;;;;4.47;3.60;;;14.40;99.90;;;;;;5027785;28;20635;-81
2022/07/16 02:16:35;;;;;;;4.10;3.80;;;14.40;99.90;;;;;;5023906;28;20666;-81
2022/07/16 02:19:02;;;;;;;4.07;3.53;;;14.40;99.90;;;;;;5029097;28;21006;-81
2022/07/16 02:21:30;;;;;;;5.70;5.07;;;14.40;99.90;;;;;;5025735;28;20669;-81
2022/07/16 02:23:58;;;;;;;4.60;4.20;;;14.30;99.90;;;;;;5022574;28;20607;-81
2022/07/16 02:26:25;;;;;;;6.57;4.00;;;14.30;99.90;;;;;;5028151;28;20629;-81
2022/07/16 02:28:52;;;;;;;6.10;4.83;;;14.20;99.90;;;;;;5026326;28;20631;-81
2022/07/16 02:31:19;;;;;;;4.97;4.57;;;14.10;99.90;;;;;;5026891;28;20662;-81
2022/07/16 02:33:48;;;;;;;5.17;4.70;;;14.10;99.90;;;;;;5024759;28;21253;-81
2022/07/16 02:36:15;;;;;;;5.17;4.67;;;14.10;99.90;;;;;;5027910;28;20665;-81
2022/07/16 02:38:41;;;;;;;4.90;4.40;;;14.00;99.90;;;;;;5025586;28;20637;-81
2022/07/16 02:41:08;;;;;;;5.17;4.53;;;14.00;99.90;;;;;;5026377;28;20673;-81
2022/07/16 02:43:35;;;;;;;5.03;4.63;;;14.00;99.90;;;;;;5025252;28;21169;-81
2022/07/16 02:46:02;;;;;;;5.70;5.20;;;13.90;99.90;;;;;;5024190;28;20627;-81
2022/07/16 02:48:29;;;;;;;5.70;4.47;;;13.90;99.90;;;;;;5025581;28;20638;-81
2022/07/16 02:50:57;;;;;;;5.07;4.33;;;13.80;99.90;;;;;;5022661;28;20754;-81
2022/07/16 02:53:24;;;;;;;4.93;4.17;;;13.70;99.90;;;;;;5027377;28;20641;-81
2022/07/16 02:55:51;;;;;;;4.70;4.30;;;13.70;99.90;;;;;;5024997;28;20722;-81
2022/07/16 02:58:18;;;;;;;5.23;4.83;;;13.70;99.90;;;;;;5027509;28;20631;-81
2022/07/16 03:00:45;;;;;;;7.03;4.50;;;13.70;99.90;;;;;;5024558;28;20663;-83
2022/07/16 03:03:12;;;;;;;7.77;5.80;;;13.70;99.90;;;;;;5026632;28;20626;-81
2022/07/16 03:05:38;;;;;;;6.50;4.23;;;13.80;99.90;;;;;;5025394;28;20623;-81
2022/07/16 03:08:07;;;;;;;5.03;4.63;;;13.70;99.90;;;;;;5024670;28;20625;-81
2022/07/16 03:10:34;;;;;;;5.43;4.90;;;13.60;99.90;;;;;;5025250;28;20669;-81
2022/07/16 03:13:00;;;;;;;5.00;4.20;;;13.60;99.90;;;;;;5025370;28;20634;-81
2022/07/16 03:15:27;;;;;;;5.00;4.57;;;13.60;99.90;;;;;;5024345;28;20678;-81
2022/07/16 03:17:54;;;;;;;5.03;4.53;;;13.60;99.90;;;;;;5026450;28;20639;-81
2022/07/16 03:20:21;;;;;;;6.03;5.37;;;13.50;99.90;;;;;;5024820;28;20659;-81
2022/07/16 03:22:48;;;;;;;5.80;5.00;;;13.50;99.90;;;;;;5024627;28;21212;-82
2022/07/16 03:25:17;;;;;;;5.97;5.40;;;13.50;99.90;;;;;;5025017;28;20622;-81
2022/07/16 03:27:43;;;;;;;6.97;5.00;;;13.50;99.90;;;;;;5025975;28;21448;-81
2022/07/16 03:30:11;;;;;;;4.70;4.40;;;13.40;99.90;;;;;;5027442;28;20667;-81
2022/07/16 03:32:38;;;;;;;5.30;4.80;;;13.40;99.90;;;;;;5026464;28;20649;-81
2022/07/16 03:35:06;;;;;;;4.87;4.57;;;13.40;99.90;;;;;;5025702;28;20678;-81
2022/07/16 03:37:33;;;;;;;6.40;5.53;;;13.40;99.90;;;;;;5022551;28;20619;-81
2022/07/16 03:40:00;;;;;;;5.90;5.30;;;13.40;99.90;;;;;;5027613;28;20657;-81
2022/07/16 03:42:28;;;;;;;6.00;5.53;;;13.40;99.90;;;;;;5024567;28;21008;-81
2022/07/16 03:44:55;;;;;;;5.60;5.13;;;13.40;99.90;;;;;;5026210;28;20664;-81
2022/07/16 03:47:22;;;;;;;8.60;5.27;;;13.30;99.90;;;;;;5025291;28;20641;-81
2022/07/16 03:49:48;;;;;;;6.00;5.50;;;13.30;99.90;;;;;;5022161;28;20651;-81
2022/07/16 03:52:15;;;;;;;5.57;4.77;;;13.30;99.90;;;;;;5026804;28;20642;-81
2022/07/16 03:54:42;;;;;;;5.87;5.33;;;13.30;99.90;;;;;;5023592;28;20637;-81
2022/07/16 03:57:09;;;;;;;8.63;7.93;;;13.20;99.90;;;;;;5025686;28;20643;-81
2022/07/16 03:59:37;;;;;;;6.73;6.03;;;13.30;99.90;;;;;;5027330;28;20653;-81
2022/07/16 04:02:04;;;;;;;5.90;5.50;;;13.30;99.90;;;;;;5025131;28;20626;-81
2022/07/16 04:04:31;;;;;;;6.30;5.70;;;13.30;99.90;;;;;;5025188;28;20641;-81
2022/07/16 04:06:57;;;;;;;6.87;5.80;;;13.30;99.90;;;;;;5024380;28;20624;-81
2022/07/16 04:09:24;;;;;;;7.50;5.27;;;13.30;99.90;;;;;;5026438;28;21206;-81
2022/07/16 04:11:51;;;;;;;5.97;5.57;;;13.30;99.90;;;;;;5025754;28;20697;-81
2022/07/16 04:14:17;;;;;;;6.30;5.80;;;13.40;99.90;;;;;;5024739;28;20988;-81
2022/07/16 04:16:46;;;;;;;5.93;5.33;;;13.30;99.90;;;;;;5023515;28;20670;-82
2022/07/16 04:19:12;;;;;;;6.07;5.57;;;13.40;99.90;;;;;;5034656;28;20638;-81
2022/07/16 04:21:39;;;;;;;7.27;5.60;;;13.30;99.90;;;;;;5029037;28;21596;-81
2022/07/16 04:24:07;;;;;;;5.83;5.43;;;13.30;99.90;;;;;;5032397;28;20642;-81
2022/07/16 04:26:33;;;;;;;6.63;6.23;;;13.30;99.90;;;;;;5029702;28;20650;-82
2022/07/16 04:29:00;;;;;;;6.37;5.83;;;13.30;99.90;;;;;;5026326;28;21042;-81
2022/07/16 04:31:27;;;;;;;6.27;5.30;;;13.30;99.90;;;;;;5028707;28;20642;-81
2022/07/16 04:33:57;;;;;;;5.40;5.10;;;13.30;99.90;;;;;;5029783;28;20602;-81
2022/07/16 04:36:24;;;;;;;5.90;5.40;;;13.30;99.90;;;;;;5031826;28;20673;-81
2022/07/16 04:38:51;;;;;;;6.40;5.90;;;13.40;99.90;;;;;;5036098;28;20641;-81
2022/07/16 04:41:17;;;;;;;6.20;5.70;;;13.30;99.90;;;;;;5030900;28;20653;-81
2022/07/16 04:43:44;;;;;;;6.50;6.00;;;13.40;99.90;;;;;;5030022;28;20635;-81
2022/07/16 04:46:11;;;;;;;5.70;5.20;;;13.40;99.90;;;;;;5026747;28;20625;-81
2022/07/16 04:48:38;;;;;;;6.40;5.80;;;13.50;99.90;;;;;;5026625;28;20634;-81
2022/07/16 04:51:06;;;;;;;6.13;5.63;;;13.50;99.90;;;;;;5025286;28;20660;-81
2022/07/16 04:53:36;;;;;;;6.00;5.50;;;13.50;99.90;;;;;;5029966;28;20995;-81
2022/07/16 04:56:03;;;;;;;6.00;5.50;;;13.60;99.90;;;;;;5027744;28;21252;-81
2022/07/16 04:58:30;;;;;;;9.00;5.90;;;13.70;99.90;;;;;;5030654;28;20630;-81
2022/07/16 05:00:57;;;;;;;6.47;5.97;;;13.80;99.90;;;;;;5026598;28;20647;-81
2022/07/16 05:03:24;;;;;;;6.67;6.07;;;13.80;99.90;;;;;;5027774;28;21207;-80
2022/07/16 05:05:50;;;;;;;6.93;6.40;;;13.80;99.90;;;;;;5033735;28;20634;-80
2022/07/16 05:08:18;;;;;;;6.67;6.00;;;13.90;99.90;;;;;;5034058;28;20625;-81
2022/07/16 05:10:45;;;;;;;6.67;6.07;;;13.90;99.90;;;;;;5027700;28;20654;-80
2022/07/16 05:13:13;;;;;;;7.37;6.67;;;14.10;99.90;;;;;;5031719;28;20623;-80
2022/07/16 05:15:41;;;;;;;7.10;6.50;;;14.20;99.90;;;;;;5027322;28;20670;-80
2022/07/16 05:18:08;;;;;;;7.30;6.70;;;14.30;99.90;;;;;;5028394;28;20659;-80
2022/07/16 05:20:35;;;;;;;6.77;6.27;;;14.30;99.90;;;;;;5022917;28;20646;-80
2022/07/16 05:23:02;;;;;;;7.30;6.60;;;14.40;99.90;;;;;;5027549;28;20994;-82
2022/07/16 05:25:30;;;;;;;7.33;6.63;;;14.40;99.90;;;;;;5029083;28;20631;-82
2022/07/16 05:27:57;;;;;;;7.20;6.60;;;14.50;99.90;;;;;;5025334;28;20623;-81
2022/07/16 05:30:24;;;;;;;6.83;6.23;;;14.70;99.90;;;;;;5030014;28;20665;-82
2022/07/16 05:32:51;;;;;;;6.67;6.03;;;14.80;99.90;;;;;;5027122;28;20732;-81
2022/07/16 05:35:18;;;;;;;6.67;6.07;;;14.90;99.90;;;;;;5027440;28;20628;-80
2022/07/16 05:37:45;;;;;;;7.17;6.30;;;15.10;99.90;;;;;;5023045;28;20759;-80
2022/07/16 05:40:14;;;;;;;6.10;5.50;;;15.10;99.90;;;;;;5027679;28;20650;-80
2022/07/16 05:42:42;;;;;;;6.43;5.83;;;15.20;99.90;;;;;;5026637;28;20645;-80
2022/07/16 05:45:10;;;;;;;6.83;5.97;;;15.30;99.90;;;;;;5028599;28;20627;-78
2022/07/16 05:47:37;;;;;;;8.07;6.30;;;15.40;99.90;;;;;;5024754;28;20724;-79
2022/07/16 05:50:05;;;;;;;5.80;5.40;;;15.50;99.90;;;;;;5024512;28;20662;-79
2022/07/16 05:52:32;;;;;;;5.80;5.20;;;15.60;99.90;;;;;;5024461;28;20638;-79
2022/07/16 05:54:59;;;;;;;6.83;6.20;;;15.70;99.90;;;;;;5026017;28;20982;-79
2022/07/16 05:57:26;;;;;;;6.10;5.50;;;15.80;99.90;;;;;;5029760;28;20680;-79
2022/07/16 05:59:54;;;;;;;6.20;5.70;;;16.00;99.90;;;;;;5024650;28;21244;-79
2022/07/16 06:02:21;;;;;;;6.33;5.63;;;16.10;99.90;;;;;;5024891;28;21071;-80
2022/07/16 06:04:47;;;;;;;10.50;8.33;;;16.20;99.90;;;;;;5026627;28;20645;-79
2022/07/16 06:07:15;;;;;;;7.93;6.97;;;16.30;99.90;;;;;;5021873;28;20627;-79
2022/07/16 06:09:42;;;;;;;7.33;6.57;;;16.40;99.90;;;;;;5025365;28;20829;-79
2022/07/16 06:12:09;;;;;;;8.27;5.70;;;16.50;99.90;;;;;;5026745;28;20634;-80
2022/07/16 06:14:36;;;;;;;6.60;6.00;;;16.70;99.90;;;;;;5025183;28;20653;-79
2022/07/16 06:17:04;;;;;;;6.63;6.03;;;16.60;99.90;;;;;;5022908;28;20730;-78
2022/07/16 06:19:31;;;;;;;6.53;5.30;;;16.80;99.90;;;;;;5025830;28;21237;-78
2022/07/16 06:21:58;;;;;;;7.40;5.30;;;16.70;99.90;;;;;;5028598;28;20660;-78
2022/07/16 06:24:25;;;;;;;6.70;4.90;;;16.70;99.90;;;;;;5024689;28;20631;-79
2022/07/16 06:26:52;;;;;;;7.20;5.13;;;16.70;99.90;;;;;;5028117;28;20637;-80
2022/07/16 06:29:19;;;;;;;9.60;4.77;;;16.80;99.90;;;;;;5025580;28;21446;-81
2022/07/16 06:31:46;;;;;;;6.27;4.90;;;16.80;99.90;;;;;;5028237;28;20634;-81
2022/07/16 06:34:14;;;;;;;5.03;4.63;;;16.90;99.90;;;;;;5024991;28;20677;-80
2022/07/16 06:36:41;;;;;;;5.53;5.03;;;17.10;99.90;;;;;;5025648;28;20655;-81
2022/07/16 06:39:08;;;;;;;5.37;4.97;;;17.20;99.90;;;;;;5026582;28;20654;-80
2022/07/16 06:41:36;;;;;;;4.40;4.10;;;17.30;99.90;;;;;;5020767;28;21201;-79
2022/07/16 06:44:04;;;;;;;4.87;4.37;;;17.50;99.90;;;;;;5023356;28;20635;-79
2022/07/16 06:46:31;;;;;;;4.87;4.43;;;17.60;99.90;;;;;;5028194;28;20650;-79
2022/07/16 06:48:57;;;;;;;4.90;4.50;;;17.70;99.90;;;;;;5024335;28;20674;-79
2022/07/16 06:51:26;;;;;;;6.33;5.03;;;17.90;99.90;;;;;;5028268;28;20619;-79
2022/07/16 06:53:53;;;;;;;8.70;4.03;;;18.00;99.90;;;;;;5025152;28;20631;-79
2022/07/16 06:56:21;;;;;;;4.70;4.23;;;18.10;99.80;;;;;;5027546;28;20646;-79
2022/07/16 06:58:48;;;;;;;5.00;4.50;;;18.30;99.80;;;;;;5024367;28;20663;-79
2022/07/16 07:01:15;;;;;;;7.33;3.63;;;18.40;99.60;;;;;;5028274;28;20617;-79
2022/07/16 07:03:42;;;;;;;4.67;4.27;;;18.50;98.90;;;;;;5024668;28;20623;-79
2022/07/16 07:06:09;;;;;;;4.30;3.90;;;18.60;99.30;;;;;;5026717;28;20745;-79
2022/07/16 07:08:38;;;;;;;4.63;4.20;;;18.70;98.90;;;;;;5028005;28;20654;-79
2022/07/16 07:11:05;;;;;;;4.40;4.10;;;18.80;98.30;;;;;;5025386;28;21125;-79
2022/07/16 07:13:32;;;;;;;4.90;4.40;;;18.90;98.40;;;;;;5030777;28;20634;-81
2022/07/16 07:15:59;;;;;;;5.37;3.50;;;19.00;97.90;;;;;;5026418;28;20631;-79
2022/07/16 07:18:27;;;;;;;4.60;4.20;;;19.10;97.00;;;;;;5025971;28;20654;-79
2022/07/16 07:20:53;;;;;;;4.43;3.60;;;19.20;97.00;;;;;;5024257;28;20627;-78
2022/07/16 07:23:20;;;;;;;5.20;3.50;;;19.40;97.10;;;;;;5022862;28;20666;-81
2022/07/16 07:25:49;;;;;;;4.23;3.57;;;19.50;97.20;;;;;;5020750;28;20643;-80
2022/07/16 07:28:16;;;;;;;4.63;4.10;;;19.70;96.90;;;;;;5027551;28;20721;-80
2022/07/16 07:30:43;;;;;;;5.80;3.87;;;19.80;96.90;;;;;;5025890;28;21296;-80
2022/07/16 07:33:10;;;;;;;5.27;3.27;;;19.80;96.90;;;;;;5023569;28;20630;-81
2022/07/16 07:35:36;;;;;;;4.40;3.67;;;19.90;96.30;;;;;;5023218;28;20627;-81
2022/07/16 07:38:03;;;;;;;3.77;3.40;;;19.90;96.00;;;;;;5018208;28;20687;-81
2022/07/16 07:40:30;;;;;;;3.83;3.53;;;20.00;95.40;;;;;;5023190;28;21219;-79
2022/07/16 07:42:59;;;;;;;3.93;3.60;;;20.10;95.00;;;;;;5023090;28;20631;-79
2022/07/16 07:45:26;;;;;;;4.97;3.40;;;20.10;94.90;;;;;;5026501;28;20701;-79
2022/07/16 07:47:53;;;;;;;4.47;3.70;;;20.20;95.20;;;;;;5022101;28;21253;-79
2022/07/16 07:50:20;;;;;;;3.37;2.57;;;20.30;93.00;;;;;;5024917;28;20665;-79
2022/07/16 07:52:47;;;;;;;2.67;2.10;;;20.40;92.40;;;;;;5025835;28;20634;-78
2022/07/16 07:55:14;;;;;;;4.70;2.73;;;20.50;91.60;;;;;;5024657;28;20638;-78
2022/07/16 07:57:42;;;;;;;2.70;2.40;;;20.60;90.80;;;;;;5026447;28;20689;-79
2022/07/16 08:00:11;;;;;;;2.70;2.50;;;20.60;90.50;;;;;;5024659;28;20782;-79
2022/07/16 08:02:38;;;;;;;6.03;2.73;;;20.60;89.50;;;;;;5023695;28;20714;-79
2022/07/16 08:05:06;;;;;;;7.40;2.70;;;20.70;91.10;;;;;;5041699;28;20680;-78
2022/07/16 08:07:33;;;;;;;4.03;2.70;;;20.90;91.40;;;;;;5023963;28;20759;-79
2022/07/16 08:10:00;;;;;;;3.27;2.70;;;20.90;90.40;;;;;;5027122;28;20979;-78
2022/07/16 08:12:29;;;;;;;2.90;2.27;;;21.00;90.40;;;;;;5025967;28;20623;-79
2022/07/16 08:14:56;;;;;;;4.13;3.13;;;21.00;88.30;;;;;;5020140;28;20642;-78
2022/07/16 08:17:24;;;;;;;3.83;2.73;;;21.00;88.90;;;;;;5023666;28;20671;-81
2022/07/16 08:19:51;;;;;;;5.37;2.37;;;21.10;87.50;;;;;;5022526;28;20671;-79
2022/07/16 08:22:18;;;;;;;4.63;2.50;;;21.20;86.70;;;;;;5026460;28;20635;-78
2022/07/16 08:27:29;;;;;;;3.47;2.33;;;21.40;84.30;;;;;;5025731;28;20674;-78
2022/07/16 08:29:56;;;;;;;12.10;3.47;;;21.40;82.10;;;;;;5023300;28;20999;-78
2022/07/16 08:32:24;;;;;;;3.70;2.40;;;21.50;83.20;;;;;;5022350;28;20717;-78
2022/07/16 08:34:51;;;;;;;3.47;2.47;;;21.70;82.00;;;;;;5024911;28;21205;-79
2022/07/16 08:37:33;;;;;;;3.60;2.47;;;21.70;81.00;;;;;;5023379;28;20662;-79
2022/07/16 08:40:00;;;;;;;4.57;1.73;;;21.80;80.50;;;;;;5024624;28;20716;-79
2022/07/16 08:42:30;;;;;;;2.50;2.03;;;21.80;79.70;;;;;;5026024;28;20718;-79
2022/07/16 08:44:58;;;;;;;2.57;2.37;;;21.90;79.60;;;;;;5023582;28;20630;-79
2022/07/16 08:47:37;;;;;;;3.50;1.87;;;21.90;78.70;;;;;;5014472;28;21025;-79
2022/07/16 08:50:08;;;;;;;2.63;2.30;;;22.00;79.30;;;;;;5012278;28;20634;-79
2022/07/16 08:52:38;;;;;;;2.67;2.30;;;22.20;79.30;;;;;;5024270;28;21020;-78
2022/07/16 08:55:06;;;;;;;3.50;2.63;;;22.30;79.10;;;;;;5025973;28;21212;-79
2022/07/16 08:57:33;;;;;;;4.60;2.10;;;22.40;76.30;;;;;;5023939;28;20774;-79
2022/07/16 09:00:00;;;;;;;5.03;3.20;;;22.50;77.80;;;;;;5021495;28;20626;-79
2022/07/16 09:02:28;;;;;;;8.53;2.07;;;22.50;77.00;;;;;;5023060;28;20659;-79
2022/07/16 09:04:56;;;;;;;3.13;1.87;;;22.60;75.80;;;;;;5022755;28;20660;-79
2022/07/16 09:07:23;;;;;;;3.20;2.10;;;22.70;75.00;;;;;;5024999;28;20627;-79
2022/07/16 09:09:49;;;;;;;1.80;1.70;;;22.70;75.00;;;;;;5026351;28;20633;-79
2022/07/16 09:12:37;;;;;;;2.53;1.73;;;22.70;74.20;;;;;;5021000;28;20670;-79
2022/07/16 09:15:30;;;;;;;3.67;1.83;;;22.80;75.10;;;;;;5025692;28;21069;-79
2022/07/16 09:18:18;;;;;;;2.93;2.00;;;23.00;75.10;;;;;;5020150;28;20677;-79
2022/07/16 09:20:52;;;;;;;2.30;1.50;;;23.00;70.90;;;;;;5028624;28;21050;-79
2022/07/16 09:23:25;;;;;;;4.70;2.57;;;23.00;71.10;;;;;;5018042;28;20651;-79
2022/07/16 09:25:54;;;;;;;2.97;2.00;;;23.10;72.20;;;;;;5027359;28;20637;-79
2022/07/16 09:28:23;;;;;;;4.77;1.70;;;23.20;71.50;;;;;;5022524;28;20656;-79
2022/07/16 09:30:50;;;;;;;2.30;1.53;;;23.30;70.40;;;;;;5027180;28;20635;-79
2022/07/16 09:33:18;;;;;;;3.17;1.70;;;23.30;69.50;;;;;;5022051;28;20624;-79
2022/07/16 09:35:47;;;;;;;3.93;1.93;;;23.50;69.20;;;;;;5024733;28;20630;-79
2022/07/16 09:38:15;;;;;;;5.83;1.53;;;23.60;68.50;;;;;;5025615;28;21261;-79
2022/07/16 09:40:44;;;;;;;3.90;1.70;;;23.60;66.30;;;;;;5026589;28;20618;-79
2022/07/16 09:43:22;;;;;;;3.23;1.93;;;23.50;65.30;;;;;;5026734;28;20974;-79
2022/07/16 09:45:51;;;;;;;3.27;1.70;;;23.60;66.40;;;;;;5024872;28;20627;-79
2022/07/16 09:48:25;;;;;;;2.30;1.17;;;23.60;64.80;;;;;;5026508;28;20646;-79
2022/07/16 09:50:56;;;;;;;2.10;1.60;;;23.60;65.70;;;;;;5023683;28;20974;-79
2022/07/16 09:53:26;;;;;;;2.90;1.73;;;23.70;65.90;;;;;;5028340;28;20645;-79
2022/07/16 09:56:02;;;;;;;2.97;1.30;;;23.70;65.40;;;;;;5017797;28;20661;-79
2022/07/16 09:58:29;;;;;;;1.97;1.77;;;23.70;65.80;;;;;;5025300;28;20686;-79
2022/07/16 10:00:59;;;;;;;3.30;2.10;;;23.70;66.20;;;;;;5027559;28;20753;-79
2022/07/16 10:03:26;;;;;;;3.23;2.43;;;23.70;66.10;;;;;;5021486;28;21016;-79
2022/07/16 10:05:55;;;;;;;4.10;1.67;;;23.80;66.10;;;;;;5027923;28;20643;-79
2022/07/16 10:08:22;;;;;;;1.93;1.50;;;23.80;66.00;;;;;;5022899;28;20689;-79
2022/07/16 10:10:49;;;;;;;4.50;1.70;;;23.80;65.80;;;;;;5024036;28;20618;-79
2022/07/16 10:13:18;;;;;;;3.13;1.80;;;24.00;66.30;;;;;;5028753;28;20729;-79
2022/07/16 10:15:46;;;;;;;3.80;1.53;;;24.00;64.40;;;;;;5022208;28;20669;-79
2022/07/16 10:18:34;;;;;;;8.73;1.90;;;23.90;63.50;;;;;;5027867;28;20679;-79
2022/07/16 10:21:08;;;;;;;2.40;1.80;;;23.80;64.10;;;;;;5019358;28;20613;-79
2022/07/16 10:23:36;;;;;;;8.37;1.90;;;23.90;64.20;;;;;;5018316;28;20627;-79
2022/07/16 10:26:06;;;;;;;4.50;1.83;;;24.00;64.50;;;;;;5020774;28;20669;-79
2022/07/16 10:28:39;;;;;;;3.63;1.60;;;24.00;62.40;;;;;;5023735;28;20646;-79
2022/07/16 10:34:33;;;;;;;1.93;1.67;;;24.10;62.70;;;;;;5011648;28;20672;-79
2022/07/16 10:37:02;;;;;;;3.03;1.70;;;24.10;63.50;;;;;;5018180;28;20681;-79
2022/07/16 10:39:30;;;;;;;3.50;2.10;;;24.20;62.40;;;;;;5022035;28;20643;-79
2022/07/16 10:41:59;;;;;;;3.80;1.80;;;24.20;61.30;;;;;;5019546;28;21562;-79
2022/07/16 10:44:27;;;;;;;2.17;1.60;;;24.20;61.50;;;;;;5024038;28;20708;-79
2022/07/16 10:46:56;;;;;;;2.13;1.70;;;24.30;61.80;;;;;;5022495;28;20638;-79
2022/07/16 10:49:24;;;;;;;1.83;1.60;;;24.50;60.90;;;;;;5023987;28;20627;-79
2022/07/16 10:51:56;;;;;;;1.67;1.20;;;24.60;59.70;;;;;;5025468;28;20614;-79
2022/07/16 10:54:25;;;;;;;2.47;1.70;;;24.70;59.40;;;;;;5018543;28;20659;-79
2022/07/16 10:56:53;;;;;;;7.83;2.10;;;24.80;60.20;;;;;;5024537;28;20626;-79
2022/07/16 10:59:22;;;;;;;2.73;1.60;;;25.10;62.50;;;;;;5028025;28;20617;-79
2022/07/16 11:01:52;;;;;;;3.00;1.77;;;25.30;59.30;;;;;;5026796;28;21196;-79
2022/07/16 11:04:28;;;;;;;1.87;1.63;;;25.40;58.90;;;;;;5024803;28;20650;-78
2022/07/16 11:06:55;;;;;;;2.23;1.20;;;25.60;58.50;;;;;;5022761;28;20613;-78
2022/07/16 11:09:28;;;;;;;3.90;1.37;;;25.80;58.60;;;;;;5020872;28;20752;-79
2022/07/16 11:11:56;;;;;;;4.47;1.70;;;26.00;57.80;;;;;;5019368;28;21235;-78
2022/07/16 11:14:29;;;;;;;3.80;1.77;;;26.10;57.10;;;;;;5024580;28;20654;-78
2022/07/16 11:16:58;;;;;;;2.67;1.70;;;26.40;56.60;;;;;;5026933;28;20619;-79
2022/07/16 11:19:26;;;;;;;1.53;1.37;;;26.60;55.00;;;;;;5026150;28;20985;-78
2022/07/16 11:21:58;;;;;;;2.90;1.80;;;26.70;54.80;;;;;;5023178;28;20635;-78
2022/07/16 11:24:28;;;;;;;1.40;1.30;;;26.90;55.30;;;;;;5024258;28;20749;-78
2022/07/16 11:26:57;;;;;;;1.40;1.30;;;27.20;55.30;;;;;;5022763;28;20998;-78
2022/07/16 11:29:26;;;;;;;2.17;1.57;;;27.50;55.00;;;;;;5027259;28;20707;-79
2022/07/16 11:31:55;;;;;;;2.07;1.30;;;27.70;54.50;;;;;;5025986;28;20623;-78
2022/07/16 11:34:23;;;;;;;4.83;1.70;;;27.90;52.30;;;;;;5026368;28;21295;-79
2022/07/16 11:36:52;;;;;;;4.90;2.30;;;27.80;52.30;;;;;;5031814;28;20670;-79
2022/07/16 11:39:21;;;;;;;1.80;1.27;;;27.70;52.80;;;;;;5032396;28;21312;-78
2022/07/16 11:41:50;;;;;;;1.50;1.40;;;27.90;53.00;;;;;;5026859;28;20669;-79
2022/07/16 11:44:19;;;;;;;3.50;1.43;;;28.20;52.50;;;;;;5025945;28;21241;-78
2022/07/16 11:46:48;;;;;;;2.57;1.40;;;28.30;49.40;;;;;;5027152;28;20630;-78
2022/07/16 11:49:24;;;;;;;1.60;1.43;;;28.40;49.20;;;;;;5026198;28;20722;-79
2022/07/16 11:51:51;;;;;;;2.00;1.57;;;28.50;48.60;;;;;;5023588;28;20961;-79
2022/07/16 11:54:18;;;;;;;1.63;1.27;;;28.80;49.30;;;;;;5026070;28;20661;-79
2022/07/16 11:56:45;;;;;;;1.87;1.50;;;28.90;48.00;;;;;;5027044;28;20634;-79
2022/07/16 11:59:21;;;;;;;5.33;1.60;;;28.80;47.30;;;;;;5024986;28;20757;-79
2022/07/16 12:01:58;;;;;;;2.70;1.30;;;28.70;48.00;;;;;;5025672;28;21063;-79
2022/07/16 12:04:35;;;;;;;2.93;1.10;;;28.90;47.00;;;;;;5024516;28;20659;-80
2022/07/16 12:07:02;;;;;;;4.70;1.50;;;29.10;47.30;;;;;;5022348;28;20622;-79
2022/07/16 12:09:34;;;;;;;2.80;1.20;;;29.50;47.00;;;;;;5026304;28;20634;-79
2022/07/16 12:12:04;;;;;;;2.30;1.20;;;29.80;46.50;;;;;;5021110;28;20631;-79
2022/07/16 12:14:53;;;;;;;3.80;2.00;;;30.00;45.60;;;;;;5022488;28;21001;-79
2022/07/16 12:17:39;;;;;;;1.97;1.77;;;30.10;44.70;;;;;;5022088;28;20626;-79
2022/07/16 12:20:13;;;;;;;3.07;1.40;;;30.40;45.40;;;;;;5016709;28;20627;-79
2022/07/16 12:22:48;;;;;;;1.47;1.27;;;30.60;44.30;;;;;;5022613;28;20614;-79
2022/07/16 12:25:21;;;;;;;2.00;1.13;;;30.60;43.70;;;;;;5021114;28;20660;-79
2022/07/16 12:27:49;;;;;;;2.30;1.33;;;30.40;43.10;;;;;;5021870;28;21185;-79
2022/07/16 12:30:18;;;;;;;2.87;1.40;;;30.40;43.80;;;;;;5024550;28;21015;-79
2022/07/16 12:32:50;;;;;;;1.77;1.50;;;30.60;44.60;;;;;;5023170;28;21096;-80
2022/07/16 12:35:40;;;;;;;1.60;1.50;;;30.80;43.80;;;;;;5023354;28;20650;-79
2022/07/16 12:38:07;;;;;;;3.40;1.40;;;31.00;43.80;;;;;;5016820;28;20674;-79
2022/07/16 12:40:34;;;;;;;1.30;1.10;;;31.00;42.20;;;;;;5022395;28;20627;-80
2022/07/16 12:43:02;;;;;;;2.10;1.10;;;31.30;43.40;;;;;;5022194;28;20956;-79
2022/07/16 12:45:30;;;;;;;2.90;1.50;;;31.60;42.30;;;;;;5020689;28;20738;-80
2022/07/16 12:47:57;;;;;;;1.50;1.40;;;32.00;43.60;;;;;;5023941;28;20619;-79
2022/07/16 12:50:25;;;;;;;3.20;1.40;;;32.40;42.60;;;;;;5028549;28;20702;-80
2022/07/16 12:52:51;;;;;;;2.83;1.50;;;32.40;41.60;;;;;;5023573;28;20646;-80
2022/07/16 13:00:49;;;;;;;3.60;1.20;;;33.10;41.30;;;;;;5029979;28;20606;-80
2022/07/16 13:03:16;;;;;;;1.50;1.17;;;33.30;40.50;;;;;;5027688;28;20637;-80
2022/07/16 13:05:43;;;;;;;6.23;1.73;;;33.10;39.20;;;;;;5028533;28;20705;-80
2022/07/16 13:08:10;;;;;;;1.90;1.20;;;33.20;39.60;;;;;;5029455;28;21140;-80
2022/07/16 13:10:38;;;;;;;2.73;1.80;;;33.60;39.80;;;;;;5029461;28;20630;-80